createdAt,value
2024-03-02T00:08:45.436Z,100
2024-03-02T00:24:06.248Z,100
2024-03-02T00:39:27.059Z,100
2024-03-02T00:54:47.870Z,100
2024-03-02T01:10:08.682Z,100
2024-03-02T01:25:29.494Z,100
2024-03-02T01:40:50.306Z,100
2024-03-02T01:56:11.117Z,100
2024-03-02T02:11:31.928Z,100
2024-03-02T02:26:52.739Z,100
2024-03-02T02:42:13.550Z,100
2024-03-02T02:57:34.360Z,100
2024-03-02T03:12:55.133Z,100
2024-03-02T03:28:14.998Z,100
2024-03-02T03:43:35.816Z,100
2024-03-02T03:58:56.631Z,100
2024-03-02T04:14:17.442Z,100
2024-03-02T04:29:38.253Z,100
2024-03-02T04:44:59.022Z,100
2024-03-02T05:00:19.875Z,100
2024-03-02T05:15:40.685Z,100
2024-03-02T05:31:01.453Z,100
2024-03-02T05:46:22.220Z,100
2024-03-02T06:01:42.989Z,100
2024-03-02T06:17:03.757Z,99.2
2024-03-02T06:32:24.525Z,98.3
2024-03-02T06:47:44.309Z,97.7
2024-03-02T07:03:05.076Z,97.2
2024-03-02T07:18:25.847Z,95.8
2024-03-02T07:33:46.614Z,95.5
2024-03-02T07:49:07.381Z,94.5
2024-03-02T08:04:28.147Z,93.9
2024-03-02T08:19:48.914Z,93.2
2024-03-02T08:35:09.681Z,92.9
2024-03-02T08:50:30.447Z,90.8
2024-03-02T09:05:51.212Z,88.8
2024-03-02T09:21:11.977Z,86.6
2024-03-02T09:36:32.743Z,84.8
2024-03-02T09:51:53.510Z,83.4
2024-03-02T10:07:13.293Z,80.2
2024-03-02T10:08:34.209Z,79.9
2024-03-02T10:09:55.122Z,80
2024-03-02T10:11:16.038Z,80.2
2024-03-02T10:12:36.956Z,79
2024-03-02T10:13:57.872Z,79.4
2024-03-02T10:15:18.755Z,78.7
2024-03-02T10:16:39.698Z,78.6
2024-03-02T10:18:00.611Z,77.9
2024-03-02T10:19:21.527Z,78.6
2024-03-02T10:20:42.443Z,77.8
2024-03-02T10:22:03.356Z,78.7
2024-03-02T10:23:24.272Z,77.6
2024-03-02T10:24:44.201Z,77.3
2024-03-02T10:26:05.114Z,77.3
2024-03-02T10:27:26.029Z,78.4
2024-03-02T10:28:46.945Z,77.5
2024-03-02T10:30:07.860Z,76.8
2024-03-02T10:31:28.780Z,75.4
2024-03-02T10:32:49.695Z,75.6
2024-03-02T10:34:10.611Z,75.2
2024-03-02T10:35:31.526Z,74.2
2024-03-02T10:36:52.441Z,74.1
2024-03-02T10:38:13.356Z,73.9
2024-03-02T10:39:34.272Z,74.1
2024-03-02T10:40:55.185Z,73.7
2024-03-02T10:42:15.116Z,74.1
2024-03-02T10:43:36.032Z,74.1
2024-03-02T10:44:56.945Z,73.8
2024-03-02T10:46:17.858Z,73.5
2024-03-02T10:47:38.774Z,72.8
2024-03-02T10:48:59.689Z,70.5
2024-03-02T10:50:20.605Z,69.2
2024-03-02T10:51:41.476Z,67.9
2024-03-02T10:53:02.434Z,67.8
2024-03-02T10:54:23.349Z,67.7
2024-03-02T10:55:44.262Z,67.5
2024-03-02T10:57:05.187Z,68
2024-03-02T10:58:26.102Z,68.8
2024-03-02T10:59:46.005Z,68.3
2024-03-02T11:01:06.949Z,68.5
2024-03-02T11:02:27.867Z,67
2024-03-02T11:03:48.780Z,66.9
2024-03-02T11:05:09.695Z,66
2024-03-02T11:06:30.568Z,66
2024-03-02T11:07:51.523Z,64.6
2024-03-02T11:09:12.444Z,63.8
2024-03-02T11:10:33.359Z,62.1
2024-03-02T11:11:54.272Z,60.9
2024-03-02T11:13:15.185Z,61
2024-03-02T11:14:36.097Z,61
2024-03-02T11:15:57.012Z,60
2024-03-02T11:17:16.944Z,60.3
2024-03-02T11:18:37.859Z,60.4
2024-03-02T11:19:58.774Z,60.6
2024-03-02T11:21:19.689Z,59.8
2024-03-02T11:22:40.604Z,59.4
2024-03-02T11:24:01.486Z,58.7
2024-03-02T11:25:21.455Z,60.2
2024-03-02T11:26:42.370Z,60.4
2024-03-02T11:28:03.257Z,59.3
2024-03-02T11:29:24.202Z,57.9
2024-03-02T11:30:45.117Z,59
2024-03-02T11:32:06.032Z,59.2
2024-03-02T11:33:26.947Z,58.9
2024-03-02T11:34:47.862Z,59.1
2024-03-02T11:36:08.777Z,58.9
2024-03-02T11:37:29.692Z,58.7
2024-03-02T11:38:50.607Z,60.1
2024-03-02T11:40:11.522Z,58.9
2024-03-02T11:41:32.437Z,59
2024-03-02T11:42:52.368Z,59
2024-03-02T11:44:13.283Z,59.8
2024-03-02T11:45:34.204Z,59
2024-03-02T11:46:55.119Z,59.6
2024-03-02T11:48:16.034Z,60
2024-03-02T11:49:36.950Z,61.5
2024-03-02T11:50:57.865Z,60.4
2024-03-02T11:52:18.780Z,59.1
2024-03-02T11:53:39.695Z,59.6
2024-03-02T11:55:00.607Z,60.5
2024-03-02T11:56:21.523Z,57.9
2024-03-02T11:57:42.438Z,57.3
2024-03-02T11:59:03.351Z,56.9
2024-03-02T12:00:23.284Z,56.5
2024-03-02T12:01:44.199Z,58.5
2024-03-02T12:03:05.112Z,60.2
2024-03-02T12:04:26.027Z,62
2024-03-02T12:05:46.942Z,59.3
2024-03-02T12:07:07.857Z,58.8
2024-03-02T12:08:28.772Z,58.6
2024-03-02T12:09:49.685Z,58.1
2024-03-02T12:11:10.598Z,58.1
2024-03-02T12:12:31.516Z,56.9
2024-03-02T12:13:52.431Z,56
2024-03-02T12:15:13.347Z,58.3
2024-03-02T12:16:34.262Z,60
2024-03-02T12:17:54.193Z,60.9
2024-03-02T12:19:15.108Z,61.8
2024-03-02T12:20:36.024Z,60.7
2024-03-02T12:21:56.939Z,59.2
2024-03-02T12:23:17.855Z,58.7
2024-03-02T12:24:38.770Z,59.6
2024-03-02T12:25:59.690Z,60.1
2024-03-02T12:27:20.603Z,59.3
2024-03-02T12:28:41.518Z,61.9
2024-03-02T12:30:02.433Z,63.7
2024-03-02T12:31:23.347Z,63.4
2024-03-02T12:32:44.263Z,62.7
2024-03-02T12:34:05.176Z,62.8
2024-03-02T12:35:25.081Z,62
2024-03-02T12:36:46.022Z,61.3
2024-03-02T12:38:06.937Z,63.3
2024-03-02T12:39:27.813Z,63.6
2024-03-02T12:40:48.768Z,62
2024-03-02T12:42:09.683Z,59.9
2024-03-02T12:43:30.599Z,59.6
2024-03-02T12:44:51.512Z,57.9
2024-03-02T12:47:33.340Z,58
2024-03-02T12:48:54.253Z,58.7
2024-03-02T12:50:15.166Z,58.5
2024-03-02T12:51:36.088Z,57.6
2024-03-02T12:52:56.019Z,58.7
2024-03-02T12:54:16.932Z,58.7
2024-03-02T12:55:37.848Z,59.9
2024-03-02T12:56:58.763Z,57.1
2024-03-02T12:58:19.678Z,57
2024-03-02T12:59:40.557Z,56.4
2024-03-02T13:01:01.507Z,56.2
2024-03-02T13:02:22.422Z,57.5
2024-03-02T13:03:43.335Z,57.8
2024-03-02T13:05:04.248Z,59.2
2024-03-02T13:06:25.164Z,60.1
2024-03-02T13:07:46.077Z,59.6
2024-03-02T13:09:06.992Z,59.3
2024-03-02T13:10:26.923Z,58.6
2024-03-02T13:11:47.837Z,58.2
2024-03-02T13:13:08.750Z,58.2
2024-03-02T13:14:29.665Z,59.4
2024-03-02T13:15:50.578Z,59.5
2024-03-02T13:17:11.491Z,58
2024-03-02T13:18:32.406Z,59
2024-03-02T13:19:53.321Z,58.2
2024-03-02T13:21:14.236Z,58.1
2024-03-02T13:22:35.149Z,57.5
2024-03-02T13:23:56.028Z,57.1
2024-03-02T13:25:16.977Z,56.5
2024-03-02T13:26:37.890Z,55.4
2024-03-02T13:27:57.819Z,56.8
2024-03-02T13:29:18.735Z,56.3
2024-03-02T13:30:39.648Z,55.5
2024-03-02T13:32:00.563Z,57
2024-03-02T13:33:21.478Z,56.4
2024-03-02T13:34:42.393Z,56.8
2024-03-02T13:36:03.308Z,58.9
2024-03-02T13:37:24.220Z,59.3
2024-03-02T13:38:45.135Z,59.2
2024-03-02T13:40:06.012Z,59.4
2024-03-02T13:41:26.965Z,59.1
2024-03-02T13:42:47.881Z,58.7
2024-03-02T13:44:08.796Z,58.7
2024-03-02T13:45:28.727Z,59.5
2024-03-02T13:46:49.640Z,60.2
2024-03-02T13:48:10.555Z,59.4
2024-03-02T13:49:31.471Z,58.7
2024-03-02T13:50:52.386Z,59.3
2024-03-02T13:52:13.302Z,59.7
2024-03-02T13:53:34.217Z,59.7
2024-03-02T13:54:55.132Z,60
2024-03-02T13:56:16.045Z,60.2
2024-03-02T13:57:36.960Z,59.9
2024-03-02T13:58:57.876Z,59.5
2024-03-02T14:00:18.791Z,59.7
2024-03-02T14:01:39.706Z,60.6
2024-03-02T14:02:59.635Z,61.7
2024-03-02T14:04:20.548Z,62.9
2024-03-02T14:05:41.461Z,63.9
2024-03-02T14:07:02.373Z,64
2024-03-02T14:08:23.288Z,64.7
2024-03-02T14:09:44.200Z,64.4
2024-03-02T14:11:05.113Z,64.1
2024-03-02T14:12:26.028Z,64
2024-03-02T14:13:46.944Z,64.4
2024-03-02T14:15:07.857Z,63.8
2024-03-02T14:16:28.772Z,63.7
2024-03-02T14:17:49.693Z,64.2
2024-03-02T14:19:10.608Z,64.7
2024-03-02T14:20:30.537Z,64.4
2024-03-02T14:21:51.457Z,63.7
2024-03-02T14:23:12.370Z,64.2
2024-03-02T14:24:33.297Z,64.3
2024-03-02T14:25:54.212Z,64.5
2024-03-02T14:27:15.127Z,64.7
2024-03-02T14:28:36.043Z,63.5
2024-03-02T14:29:56.958Z,64.7
2024-03-02T14:31:17.873Z,64.3
2024-03-02T14:32:38.786Z,64.5
2024-03-02T14:33:59.701Z,64.2
2024-03-02T14:35:20.616Z,64.3
2024-03-02T14:36:41.533Z,63.8
2024-03-02T14:38:01.464Z,62.8
2024-03-02T14:39:22.379Z,63.2
2024-03-02T14:40:43.295Z,63.8
2024-03-02T14:42:04.211Z,64.4
2024-03-02T14:43:25.126Z,64.8
2024-03-02T14:44:46.038Z,64.5
2024-03-02T14:46:06.951Z,64.7
2024-03-02T14:47:27.866Z,65.2
2024-03-02T14:48:48.781Z,65.2
2024-03-02T14:50:09.697Z,65.5
2024-03-02T14:51:30.612Z,65.1
2024-03-02T14:52:51.525Z,65.2
2024-03-02T14:54:12.440Z,65.1
2024-03-02T14:55:32.372Z,64.9
2024-03-02T14:56:53.287Z,65.2
2024-03-02T14:58:14.202Z,65.3
2024-03-02T14:59:35.117Z,65.2
2024-03-02T15:00:56.032Z,65.5
2024-03-02T15:02:16.947Z,65.8
2024-03-02T15:03:37.863Z,66.1
2024-03-02T15:04:58.778Z,65.9
2024-03-02T15:06:19.693Z,66.5
2024-03-02T15:07:40.608Z,66.5
2024-03-02T15:09:01.523Z,66.8
2024-03-02T15:10:22.438Z,67.1
2024-03-02T15:11:43.351Z,67.3
2024-03-02T15:13:03.282Z,67.1
2024-03-02T15:14:24.198Z,67.7
2024-03-02T15:15:45.114Z,68.3
2024-03-02T15:17:06.027Z,68.6
2024-03-02T15:18:26.942Z,68.7
2024-03-02T15:19:47.857Z,68.6
2024-03-02T15:21:08.773Z,68.8
2024-03-02T15:22:29.688Z,69.6
2024-03-02T15:23:50.605Z,69.8
2024-03-02T15:25:11.520Z,69.8
2024-03-02T15:26:32.433Z,70.3
2024-03-02T15:27:53.348Z,70.5
2024-03-02T15:29:14.264Z,70.2
2024-03-02T15:30:34.195Z,69.6
2024-03-02T15:31:55.112Z,69.9
2024-03-02T15:33:15.997Z,69.9
2024-03-02T15:34:36.940Z,70.2
2024-03-02T15:35:57.855Z,70.8
2024-03-02T15:37:18.770Z,71
2024-03-02T15:38:39.686Z,71.3
2024-03-02T15:40:00.610Z,71.5
2024-03-02T15:41:21.526Z,71.6
2024-03-02T15:42:42.445Z,71.7
2024-03-02T15:44:03.359Z,72
2024-03-02T15:45:24.272Z,72.2
2024-03-02T15:46:45.187Z,72.5
2024-03-02T15:48:05.116Z,73
2024-03-02T15:49:26.031Z,73.2
2024-03-02T15:50:46.947Z,73.4
2024-03-02T15:52:07.860Z,73.5
2024-03-02T15:53:28.784Z,73.8
2024-03-02T15:54:49.699Z,74.1
2024-03-02T15:56:09.636Z,74.3
2024-03-02T15:57:30.551Z,74.5
2024-03-02T15:58:51.466Z,74.4
2024-03-02T16:00:12.381Z,74.8
2024-03-02T16:01:33.292Z,75.1
2024-03-02T16:02:54.207Z,75.1
2024-03-02T16:04:15.122Z,75.2
2024-03-02T16:05:36.037Z,75.3
2024-03-02T16:06:56.915Z,75.2
2024-03-02T16:08:17.867Z,75.6
2024-03-02T16:09:38.782Z,75.5
2024-03-02T16:10:59.697Z,75.7
2024-03-02T16:12:20.612Z,76
2024-03-02T16:13:40.541Z,76.1
2024-03-02T16:15:01.464Z,76
2024-03-02T16:16:22.383Z,76.1
2024-03-02T16:17:43.258Z,76.3
2024-03-02T16:19:04.210Z,76.5
2024-03-02T16:20:25.126Z,76.6
2024-03-02T16:21:46.041Z,76.8
2024-03-02T16:23:06.956Z,77
2024-03-02T16:24:27.871Z,77.1
2024-03-02T16:25:48.787Z,77.7
2024-03-02T16:27:09.702Z,77.8
2024-03-02T16:28:30.615Z,78.2
2024-03-02T16:29:51.530Z,78.5
2024-03-02T16:31:11.461Z,78.8
2024-03-02T16:32:32.378Z,79
2024-03-02T16:33:53.293Z,79.4
2024-03-02T16:35:14.206Z,79.7
2024-03-02T16:36:35.125Z,79.9
2024-03-02T16:37:56.041Z,80.2
2024-03-02T16:39:16.954Z,80.3
2024-03-02T16:40:37.869Z,80.6
2024-03-02T16:41:58.781Z,80.8
2024-03-02T16:43:19.694Z,80.8
2024-03-02T16:44:40.609Z,81.1
2024-03-02T16:46:01.524Z,81.3
2024-03-02T16:47:22.440Z,81.4
2024-03-02T16:48:42.371Z,81.5
2024-03-02T16:50:03.286Z,81.6
2024-03-02T16:51:24.202Z,81.7
2024-03-02T16:52:45.117Z,81.9
2024-03-02T16:54:06.032Z,82
2024-03-02T16:55:26.945Z,82.1
2024-03-02T16:56:47.857Z,82.2
2024-03-02T16:58:08.773Z,82.4
2024-03-02T16:59:29.688Z,82.5
2024-03-02T17:00:50.603Z,82.7
2024-03-02T17:02:11.481Z,82.9
2024-03-02T17:03:32.433Z,83
2024-03-02T17:04:53.354Z,83.1
2024-03-02T17:06:13.283Z,83.2
2024-03-02T17:07:34.196Z,83.3
2024-03-02T17:08:55.071Z,83.5
2024-03-02T17:10:16.026Z,83.6
2024-03-02T17:11:36.939Z,83.8
2024-03-02T17:12:57.855Z,84
2024-03-02T17:14:18.773Z,84
2024-03-02T17:15:39.689Z,84.2
2024-03-02T17:17:00.604Z,84.3
2024-03-02T17:18:21.562Z,84.3
2024-03-02T17:19:42.475Z,84.2
2024-03-02T17:21:03.390Z,84
2024-03-02T17:22:24.354Z,84
2024-03-02T17:23:44.285Z,84
2024-03-02T17:25:05.200Z,83.8
2024-03-02T17:26:26.159Z,83.7
2024-03-02T17:27:47.117Z,83.6
2024-03-02T17:29:08.073Z,83.3
2024-03-02T17:30:29.031Z,83.1
2024-03-02T17:31:49.989Z,83.2
2024-03-02T17:33:10.918Z,83.2
2024-03-02T17:34:31.902Z,83.2
2024-03-02T17:35:52.860Z,83.1
2024-03-02T17:37:13.819Z,83.2
2024-03-02T17:38:34.777Z,83.3
2024-03-02T17:39:55.736Z,83.4
2024-03-02T17:41:15.710Z,83.4
2024-03-02T17:42:36.666Z,83.5
2024-03-02T17:43:57.624Z,83.4
2024-03-02T17:45:18.580Z,83.6
2024-03-02T17:46:39.538Z,83.7
2024-03-02T17:48:00.497Z,83.7
2024-03-02T17:49:21.455Z,83.7
2024-03-02T17:50:42.411Z,83.6
2024-03-02T17:52:03.369Z,83.6
2024-03-02T17:53:24.325Z,83.5
2024-03-02T17:54:45.281Z,83.7
2024-03-02T17:56:06.243Z,83.7
2024-03-02T17:57:27.158Z,83.7
2024-03-02T17:58:47.171Z,83.7
2024-03-02T18:00:08.125Z,83.5
2024-03-02T18:01:29.083Z,83.5
2024-03-02T18:02:50.039Z,83.6
2024-03-02T18:04:10.995Z,83.7
2024-03-02T18:05:31.951Z,83.7
2024-03-02T18:06:52.906Z,83.9
2024-03-02T18:08:13.862Z,83.9
2024-03-02T18:09:34.818Z,84
2024-03-02T18:10:55.773Z,84
2024-03-02T18:12:16.731Z,84
2024-03-02T18:13:37.687Z,84.1
2024-03-02T18:14:58.645Z,84.3
2024-03-02T18:16:18.617Z,84.2
2024-03-02T18:17:39.571Z,84.3
2024-03-02T18:19:00.529Z,84.5
2024-03-02T18:20:21.485Z,84.5
2024-03-02T18:21:42.413Z,84.5
2024-03-02T18:23:03.402Z,84.5
2024-03-02T18:24:24.358Z,84.5
2024-03-02T18:25:45.314Z,84.3
2024-03-02T18:27:06.272Z,84.3
2024-03-02T18:28:27.226Z,84.3
2024-03-02T18:29:48.189Z,84.3
2024-03-02T18:31:09.145Z,84.4
2024-03-02T18:32:30.103Z,84.5
2024-03-02T18:33:50.078Z,84.5
2024-03-02T18:35:11.032Z,84.7
2024-03-02T18:36:31.952Z,84.8
2024-03-02T18:37:52.948Z,84.8
2024-03-02T18:39:13.904Z,84.8
2024-03-02T18:40:34.859Z,84.9
2024-03-02T18:41:55.815Z,85
2024-03-02T18:43:16.771Z,85.1
2024-03-02T18:44:37.727Z,85.1
2024-03-02T18:45:58.657Z,85
2024-03-02T18:47:19.639Z,85.1
2024-03-02T18:48:40.595Z,85.2
2024-03-02T18:50:01.553Z,85.2
2024-03-02T18:51:21.526Z,85.3
2024-03-02T18:54:03.437Z,85.7
2024-03-02T18:55:24.393Z,85.7
2024-03-02T18:56:45.349Z,85.7
2024-03-02T18:58:06.305Z,85.9
2024-03-02T18:59:27.261Z,85.9
2024-03-02T19:00:48.217Z,85.9
2024-03-02T19:02:09.173Z,85.9
2024-03-02T19:03:30.129Z,86.1
2024-03-02T19:04:51.054Z,86.2
2024-03-02T19:06:12.041Z,86.3
2024-03-02T19:07:32.997Z,86.5
2024-03-02T19:08:52.969Z,86.5
2024-03-02T19:10:13.928Z,86.6
2024-03-02T19:11:34.884Z,86.6
2024-03-02T19:12:55.842Z,86.7
2024-03-02T19:14:16.798Z,86.7
2024-03-02T19:15:37.754Z,86.8
2024-03-02T19:16:58.708Z,86.9
2024-03-02T19:18:19.674Z,87
2024-03-02T19:19:40.630Z,87
2024-03-02T19:21:01.586Z,87.1
2024-03-02T19:22:22.544Z,87.1
2024-03-02T19:23:43.502Z,87.3
2024-03-02T19:25:04.458Z,87.2
2024-03-02T19:26:24.430Z,87.2
2024-03-02T19:27:45.386Z,87.2
2024-03-02T19:29:06.342Z,87.2
2024-03-02T19:30:27.296Z,87.2
2024-03-02T19:31:48.252Z,87.3
2024-03-02T19:33:09.208Z,87.4
2024-03-02T19:34:30.142Z,87.4
2024-03-02T19:35:51.122Z,87.4
2024-03-02T19:37:12.040Z,87.4
2024-03-02T19:38:33.037Z,87.6
2024-03-02T19:39:53.993Z,87.7
2024-03-02T19:41:14.949Z,87.7
2024-03-02T19:42:35.870Z,87.8
2024-03-02T19:43:55.879Z,87.9
2024-03-02T19:45:16.834Z,88
2024-03-02T19:46:37.790Z,88.1
2024-03-02T19:47:58.744Z,88.1
2024-03-02T19:49:19.702Z,88.2
2024-03-02T19:50:40.658Z,88.3
2024-03-02T19:52:01.614Z,88.5
2024-03-02T19:53:22.570Z,88.3
2024-03-02T19:54:43.524Z,88.5
2024-03-02T19:56:04.480Z,88.5
2024-03-02T19:57:25.436Z,88.5
2024-03-02T19:58:46.370Z,88.7
2024-03-02T20:00:07.351Z,88.8
2024-03-02T20:01:27.323Z,88.9
2024-03-02T20:02:48.279Z,88.9
2024-03-02T20:04:09.235Z,88.9
2024-03-02T20:05:30.192Z,88.9
2024-03-02T20:06:51.148Z,89
2024-03-02T20:08:12.105Z,89
2024-03-02T20:09:33.063Z,89.1
2024-03-02T20:10:54.019Z,89.2
2024-03-02T20:12:14.975Z,89.2
2024-03-02T20:13:35.931Z,89.3
2024-03-02T20:14:56.887Z,89.4
2024-03-02T20:16:17.843Z,89.4
2024-03-02T20:17:38.797Z,89.7
2024-03-02T20:18:58.769Z,89.6
2024-03-02T20:20:19.725Z,89.8
2024-03-02T20:21:40.679Z,89.8
2024-03-02T20:23:01.606Z,89.9
2024-03-02T20:24:22.592Z,90.2
2024-03-02T20:25:43.554Z,90.4
2024-03-02T20:41:03.383Z,91.3
2024-03-02T20:56:24.191Z,92.3
2024-03-02T21:11:45.000Z,93.8
2024-03-02T21:27:05.810Z,95.1
2024-03-02T21:42:26.620Z,94
2024-03-02T21:57:47.430Z,94
2024-03-02T22:13:08.240Z,94.8
2024-03-02T22:28:29.051Z,95.6
2024-03-02T22:43:49.861Z,96.3
2024-03-02T22:59:10.671Z,97.1
2024-03-02T23:14:31.482Z,97.2
2024-03-02T23:29:52.293Z,96.8
2024-03-02T23:45:13.105Z,96.7
